createdAt,value
2019-05-02T00:00:12.003Z,17.90
2019-05-02T00:01:11.963Z,17.50
2019-05-02T00:02:11.949Z,16.50
2019-05-02T00:03:11.948Z,20.00
2019-05-02T00:04:19.664Z,19.80
2019-05-02T00:05:12.950Z,17.50
2019-05-02T00:06:11.949Z,16.90
2019-05-02T00:07:14.351Z,18.70
2019-05-02T00:08:12.893Z,19.90
2019-05-02T00:09:11.881Z,18.40
2019-05-02T00:10:11.876Z,18.20
2019-05-02T00:11:11.879Z,21.10
2019-05-02T00:12:11.837Z,17.10
2019-05-02T00:13:11.836Z,19.00
2019-05-02T00:14:11.819Z,16.60
2019-05-02T00:15:11.861Z,19.70
2019-05-02T00:16:14.058Z,16.30
2019-05-02T00:17:11.807Z,16.70
2019-05-02T00:18:11.777Z,18.40
2019-05-02T00:19:13.985Z,18.50
2019-05-02T00:20:11.753Z,17.70
2019-05-02T00:21:11.744Z,16.70
2019-05-02T00:22:12.238Z,21.00
2019-05-02T00:23:12.717Z,19.00
2019-05-02T00:24:11.707Z,19.50
2019-05-02T00:25:15.902Z,19.20
2019-05-02T00:26:12.692Z,17.30
2019-05-02T00:27:11.675Z,18.80
2019-05-02T00:28:12.500Z,18.30
2019-05-02T00:29:11.653Z,16.70
2019-05-02T00:30:11.642Z,17.50
2019-05-02T00:31:12.825Z,19.30
2019-05-02T00:32:11.625Z,20.20
2019-05-02T00:33:11.625Z,17.70
2019-05-02T00:34:11.629Z,17.80
2019-05-02T00:35:11.585Z,16.50
2019-05-02T00:36:11.575Z,19.50
2019-05-02T00:37:11.573Z,17.80
2019-05-02T00:38:11.579Z,19.90
2019-05-02T00:39:13.797Z,18.20
2019-05-02T00:40:11.525Z,20.40
2019-05-02T00:41:11.520Z,18.50
2019-05-02T00:42:13.022Z,20.90
2019-05-02T00:43:11.512Z,18.20
2019-05-02T00:44:12.337Z,19.30
2019-05-02T00:45:13.975Z,18.00
2019-05-02T00:46:11.466Z,17.60
2019-05-02T00:47:12.055Z,15.90
2019-05-02T00:48:11.440Z,15.10
2019-05-02T00:49:11.429Z,17.80
2019-05-02T00:50:12.618Z,16.70
2019-05-02T00:51:11.424Z,15.50
2019-05-02T00:52:11.399Z,16.50
2019-05-02T00:53:12.211Z,16.10
2019-05-02T00:54:11.373Z,16.30
2019-05-02T00:55:11.363Z,16.80
2019-05-02T00:56:11.366Z,15.90
2019-05-02T00:57:14.840Z,16.20
2019-05-02T00:58:12.413Z,17.40
2019-05-02T00:59:11.321Z,19.10
2019-05-02T01:00:13.483Z,18.80
2019-05-02T01:01:12.291Z,18.90
2019-05-02T01:02:11.303Z,15.00
2019-05-02T01:03:16.091Z,16.70
2019-05-02T01:04:12.265Z,17.60
2019-05-02T01:05:11.245Z,14.40
2019-05-02T01:06:14.550Z,16.40
2019-05-02T01:07:11.239Z,20.80
2019-05-02T01:08:11.211Z,18.90
2019-05-02T01:09:12.898Z,17.50
2019-05-02T01:10:11.205Z,15.50
2019-05-02T01:11:11.192Z,20.50
2019-05-02T01:12:11.166Z,17.00
2019-05-02T01:13:14.841Z,17.20
2019-05-02T01:14:11.176Z,17.20
2019-05-02T01:15:11.135Z,17.50
2019-05-02T01:16:15.160Z,16.30
2019-05-02T01:17:12.121Z,19.40
2019-05-02T01:18:11.109Z,16.70
2019-05-02T01:19:12.182Z,18.10
2019-05-02T01:20:11.079Z,21.20
2019-05-02T01:21:11.063Z,17.70
2019-05-02T01:22:15.876Z,16.10
2019-05-02T01:23:12.064Z,14.80
2019-05-02T01:24:11.049Z,16.40
2019-05-02T01:25:15.452Z,15.70
2019-05-02T01:26:11.055Z,17.80
2019-05-02T01:27:10.996Z,15.20
2019-05-02T01:28:12.832Z,18.50
2019-05-02T01:29:11.977Z,15.10
2019-05-02T01:30:10.981Z,16.80
2019-05-02T01:31:13.076Z,16.80
2019-05-02T01:32:11.941Z,15.30
2019-05-02T01:33:10.936Z,14.50
2019-05-02T01:34:13.134Z,17.70
2019-05-02T01:35:11.935Z,14.10
2019-05-02T01:36:10.918Z,16.80
2019-05-02T01:37:11.915Z,16.30
2019-05-02T01:38:11.899Z,15.30
2019-05-02T01:39:10.878Z,15.30
2019-05-02T01:40:12.955Z,17.00
2019-05-02T01:41:11.849Z,17.90
2019-05-02T01:42:10.865Z,16.80
2019-05-02T01:43:10.839Z,14.80
2019-05-02T01:44:10.818Z,18.00
2019-05-02T01:45:12.469Z,16.30
2019-05-02T01:46:10.809Z,17.60
2019-05-02T01:47:10.802Z,16.80
2019-05-02T01:48:17.939Z,16.30
2019-05-02T01:49:57.323Z,15.90
2019-05-02T01:50:53.407Z,16.80
2019-05-02T01:51:52.397Z,17.20
2019-05-02T01:52:53.704Z,16.80
2019-05-02T01:53:53.372Z,17.00
2019-05-02T01:54:52.358Z,15.80
2019-05-02T01:55:57.709Z,14.50
2019-05-02T01:56:53.350Z,13.90
2019-05-02T01:57:52.325Z,15.10
2019-05-02T01:58:52.962Z,16.40
2019-05-02T01:59:53.307Z,15.20
2019-05-02T02:00:52.309Z,13.30
2019-05-02T02:01:53.207Z,17.00
2019-05-02T02:02:53.269Z,17.40
2019-05-02T02:03:52.266Z,16.70
2019-05-02T02:04:56.786Z,15.50
2019-05-02T02:05:53.272Z,17.30
2019-05-02T02:06:52.232Z,13.60
2019-05-02T02:07:55.589Z,14.60
2019-05-02T02:08:53.207Z,15.70
2019-05-02T02:09:52.201Z,16.00
2019-05-02T02:10:56.215Z,14.70
2019-05-02T02:11:53.178Z,14.70
2019-05-02T02:13:03.204Z,14.50
2019-05-02T02:13:53.148Z,13.40
2019-05-02T02:14:53.481Z,12.80
2019-05-02T02:15:52.125Z,14.20
2019-05-02T02:16:52.120Z,13.80
2019-05-02T02:17:52.666Z,14.30
2019-05-02T02:18:52.093Z,14.70
2019-05-02T02:19:52.084Z,17.40
2019-05-02T02:20:52.076Z,14.30
2019-05-02T02:21:52.059Z,14.00
2019-05-02T02:22:52.048Z,16.60
2019-05-02T02:23:52.033Z,15.30
2019-05-02T02:24:56.026Z,15.30
2019-05-02T02:25:53.017Z,14.60
2019-05-02T02:26:52.005Z,14.90
2019-05-02T02:27:54.913Z,16.10
2019-05-02T02:28:52.982Z,13.60
2019-05-02T02:29:51.970Z,13.50
2019-05-02T02:30:58.091Z,14.50
2019-05-02T02:31:52.950Z,13.90
2019-05-02T02:32:51.942Z,13.10
2019-05-02T02:33:51.936Z,14.70
2019-05-02T02:34:51.923Z,18.00
2019-05-02T02:35:52.179Z,13.60
2019-05-02T02:36:51.901Z,13.60
2019-05-02T02:37:52.922Z,14.50
2019-05-02T02:38:51.875Z,14.40
2019-05-02T02:39:54.098Z,14.50
2019-05-02T02:40:51.849Z,14.50
2019-05-02T02:41:54.030Z,14.20
2019-05-02T02:42:51.839Z,12.30
2019-05-02T02:43:54.716Z,14.30
2019-05-02T02:44:52.807Z,14.10
2019-05-02T02:45:58.067Z,15.40
2019-05-02T02:46:52.785Z,15.60
2019-05-02T02:47:52.945Z,15.00
2019-05-02T02:48:52.771Z,13.60
2019-05-02T02:49:56.034Z,17.00
2019-05-02T02:50:52.743Z,15.60
2019-05-02T02:51:57.991Z,14.00
2019-05-02T02:52:52.721Z,13.70
2019-05-02T02:54:02.722Z,14.80
2019-05-02T02:54:52.699Z,15.80
2019-05-02T02:56:00.785Z,12.70
2019-05-02T02:56:52.680Z,17.20
2019-05-02T02:57:51.662Z,17.30
2019-05-02T02:58:51.657Z,13.90
2019-05-02T02:59:51.647Z,15.40
2019-05-02T03:00:51.638Z,14.90
2019-05-02T03:01:51.618Z,16.70
2019-05-02T03:02:51.607Z,16.50
2019-05-02T03:03:51.601Z,14.20
2019-05-02T03:04:51.588Z,14.70
2019-05-02T03:05:51.575Z,15.90
2019-05-02T03:06:51.572Z,18.00
2019-05-02T03:07:51.565Z,13.80
2019-05-02T03:08:51.548Z,15.20
2019-05-02T03:09:51.552Z,17.50
2019-05-02T03:10:51.526Z,12.20
2019-05-02T03:11:56.375Z,16.20
2019-05-02T03:12:52.517Z,15.30
2019-05-02T03:13:53.393Z,15.50
2019-05-02T03:14:51.497Z,13.80
2019-05-02T03:15:51.468Z,13.50
2019-05-02T03:16:51.463Z,13.90
2019-05-02T03:17:51.446Z,15.10
2019-05-02T03:18:51.434Z,13.30
2019-05-02T03:19:54.362Z,15.70
2019-05-02T03:20:52.428Z,12.90
2019-05-02T03:21:54.463Z,15.10
2019-05-02T03:22:52.401Z,14.30
2019-05-02T03:24:02.272Z,15.60
2019-05-02T03:24:52.375Z,14.20
2019-05-02T03:25:51.760Z,13.30
2019-05-02T03:26:55.159Z,15.70
2019-05-02T03:27:51.344Z,14.60
2019-05-02T03:28:58.430Z,15.20
2019-05-02T03:29:52.322Z,13.50
2019-05-02T03:30:51.306Z,13.60
2019-05-02T03:32:11.400Z,16.30
2019-05-02T03:33:04.720Z,13.10
2019-05-02T03:33:55.427Z,14.30
2019-05-02T03:34:54.101Z,16.00
2019-05-02T03:35:51.258Z,16.60
2019-05-02T03:36:51.265Z,13.60
2019-05-02T03:37:53.009Z,14.20
2019-05-02T03:38:51.225Z,14.70
2019-05-02T03:39:57.551Z,13.40
2019-05-02T03:40:52.195Z,14.50
2019-05-02T03:41:55.588Z,15.30
2019-05-02T03:42:52.169Z,14.10
2019-05-02T03:44:09.125Z,14.10
2019-05-02T03:44:56.246Z,12.90
2019-05-02T03:45:52.134Z,15.90
2019-05-02T03:46:54.132Z,13.70
2019-05-02T03:47:52.121Z,12.90
2019-05-02T03:48:51.116Z,12.90
2019-05-02T03:49:52.341Z,14.00
2019-05-02T03:50:51.085Z,14.00
2019-05-02T03:51:55.878Z,18.30
2019-05-02T03:52:52.058Z,16.50
2019-05-02T03:53:51.067Z,14.30
2019-05-02T03:54:52.550Z,14.40
2019-05-02T03:55:51.025Z,12.40
2019-05-02T03:56:51.649Z,16.70
2019-05-02T03:57:51.003Z,13.90
2019-05-02T03:58:56.007Z,14.30
2019-05-02T03:59:51.990Z,15.60
2019-05-02T04:01:00.352Z,14.80
2019-05-02T04:01:51.957Z,14.40
2019-05-02T04:02:58.902Z,15.20
2019-05-02T04:03:51.939Z,12.80
2019-05-02T04:04:54.410Z,13.10
2019-05-02T04:05:51.917Z,13.20
2019-05-02T04:06:54.930Z,12.40
2019-05-02T04:07:51.894Z,13.10
2019-05-02T04:08:58.763Z,12.00
2019-05-02T04:09:51.879Z,13.50
2019-05-02T04:10:52.553Z,16.30
2019-05-02T04:11:51.854Z,12.70
2019-05-02T04:12:52.974Z,12.90
2019-05-02T04:13:51.839Z,12.70
2019-05-02T04:14:55.617Z,11.20
2019-05-02T04:15:51.807Z,12.10
2019-05-02T04:16:55.161Z,13.80
2019-05-02T04:17:51.791Z,13.20
2019-05-02T04:18:55.822Z,13.40
2019-05-02T04:19:51.772Z,14.40
2019-05-02T04:20:52.010Z,13.80
2019-05-02T04:21:54.739Z,12.50
2019-05-02T04:22:50.912Z,12.80
2019-05-02T04:23:50.716Z,12.60
2019-05-02T04:24:54.340Z,13.80
2019-05-02T04:25:51.694Z,11.20
2019-05-02T04:26:53.713Z,12.60
2019-05-02T04:27:51.675Z,11.80
2019-05-02T04:28:51.552Z,10.30
2019-05-02T04:29:50.651Z,9.10
2019-05-02T04:30:51.736Z,11.70
2019-05-02T04:31:50.642Z,10.40
2019-05-02T04:32:55.785Z,8.90
2019-05-02T04:33:51.611Z,11.00
2019-05-02T04:34:55.085Z,11.90
2019-05-02T04:35:51.591Z,12.00
2019-05-02T04:36:59.417Z,10.40
2019-05-02T04:37:51.584Z,12.90
2019-05-02T04:38:52.535Z,11.90
2019-05-02T04:39:53.764Z,10.20
2019-05-02T04:40:51.532Z,12.90
2019-05-02T04:41:50.525Z,11.90
2019-05-02T04:43:01.075Z,12.90
2019-05-02T04:43:57.461Z,12.60
2019-05-02T04:45:11.633Z,12.40
2019-05-02T04:45:56.019Z,11.10
2019-05-02T04:46:51.473Z,12.30
2019-05-02T04:47:58.477Z,13.90
2019-05-02T04:48:52.806Z,11.00
2019-05-02T04:49:51.944Z,12.10
2019-05-02T04:50:51.601Z,12.60
2019-05-02T04:51:59.838Z,10.40
2019-05-02T04:52:53.798Z,12.40
2019-05-02T04:53:50.401Z,14.80
2019-05-02T04:54:50.380Z,11.40
2019-05-02T04:56:01.741Z,13.80
2019-05-02T04:56:55.125Z,11.70
2019-05-02T04:57:51.006Z,13.10
2019-05-02T04:58:50.337Z,10.80
2019-05-02T04:59:50.916Z,10.60
2019-05-02T05:00:58.035Z,12.10
2019-05-02T05:01:57.001Z,11.80
2019-05-02T05:02:53.281Z,10.70
2019-05-02T05:03:58.163Z,11.70
2019-05-02T05:04:51.267Z,12.60
2019-05-02T05:05:50.264Z,12.30
2019-05-02T05:06:56.055Z,13.00
2019-05-02T05:07:51.231Z,11.50
2019-05-02T05:08:50.223Z,9.90
2019-05-02T05:09:58.270Z,12.40
2019-05-02T05:10:51.201Z,11.50
2019-05-02T05:11:53.903Z,11.90
2019-05-02T05:12:51.174Z,11.60
2019-05-02T05:13:52.339Z,12.60
2019-05-02T05:14:51.167Z,13.40
2019-05-02T05:15:52.020Z,12.10
2019-05-02T05:16:53.810Z,13.80
2019-05-02T05:17:51.120Z,11.90
2019-05-02T05:18:53.097Z,12.90
2019-05-02T05:19:50.098Z,13.20
2019-05-02T05:20:52.862Z,11.30
2019-05-02T05:21:50.083Z,11.20
2019-05-02T05:22:50.087Z,12.50
2019-05-02T05:23:51.753Z,12.20
2019-05-02T05:24:51.055Z,13.30
2019-05-02T05:25:50.766Z,10.20
2019-05-02T05:26:51.020Z,11.90
2019-05-02T05:27:52.748Z,11.00
2019-05-02T05:28:51.003Z,11.30
2019-05-02T05:29:53.734Z,11.10
2019-05-02T05:30:52.197Z,10.70
2019-05-02T05:31:49.988Z,12.00
2019-05-02T05:32:49.957Z,11.50
2019-05-02T05:33:49.949Z,11.60
2019-05-02T05:34:49.941Z,12.90
2019-05-02T05:35:52.555Z,8.90
2019-05-02T05:36:49.927Z,9.30
2019-05-02T05:37:53.090Z,9.50
2019-05-02T05:38:49.920Z,10.90
2019-05-02T05:39:52.543Z,10.70
2019-05-02T05:40:50.298Z,10.00
2019-05-02T05:41:52.261Z,9.60
2019-05-02T05:42:49.864Z,10.70
2019-05-02T05:43:53.512Z,10.80
2019-05-02T05:44:49.834Z,9.60
2019-05-02T05:45:56.226Z,11.00
2019-05-02T05:46:50.803Z,10.20
2019-05-02T05:47:52.467Z,13.80
2019-05-02T05:48:50.808Z,10.80
2019-05-02T05:49:52.362Z,11.70
2019-05-02T05:50:50.773Z,10.40
2019-05-02T05:51:54.559Z,8.50
2019-05-02T05:52:51.941Z,9.20
2019-05-02T05:53:52.284Z,9.30
2019-05-02T05:54:50.717Z,11.80
2019-05-02T05:55:53.571Z,10.20
2019-05-02T05:56:50.723Z,9.80
2019-05-02T05:57:49.974Z,9.60
2019-05-02T05:58:52.670Z,9.50
2019-05-02T05:59:49.658Z,9.40
2019-05-02T06:00:53.665Z,13.10
2019-05-02T06:01:51.638Z,12.30
2019-05-02T06:02:53.967Z,12.80
2019-05-02T06:03:50.611Z,12.80
2019-05-02T06:04:50.284Z,11.20
2019-05-02T06:05:49.584Z,11.70
2019-05-02T06:06:49.585Z,10.40
2019-05-02T06:07:49.585Z,13.70
2019-05-02T06:08:54.097Z,11.50
2019-05-02T06:09:50.546Z,9.60
2019-05-02T06:10:49.528Z,10.50
2019-05-02T06:11:50.766Z,10.90
2019-05-02T06:12:49.512Z,13.00
2019-05-02T06:13:50.751Z,11.40
2019-05-02T06:14:49.497Z,12.20
2019-05-02T06:16:01.628Z,11.30
2019-05-02T06:16:51.793Z,13.50
2019-05-02T06:17:49.458Z,12.80
2019-05-02T06:18:49.443Z,13.80
2019-05-02T06:19:53.556Z,11.30
2019-05-02T06:20:50.417Z,13.10
2019-05-02T06:21:49.415Z,14.00
2019-05-02T06:22:49.399Z,13.50
2019-05-02T06:23:49.387Z,16.80
2019-05-02T06:24:50.873Z,15.10
2019-05-02T06:25:49.377Z,12.50
2019-05-02T06:26:51.574Z,12.30
2019-05-02T06:27:49.339Z,14.60
2019-05-02T06:28:49.359Z,15.40
2019-05-02T06:29:51.059Z,13.80
2019-05-02T06:30:50.311Z,13.00
2019-05-02T06:31:49.297Z,15.80
2019-05-02T06:32:49.924Z,12.10
2019-05-02T06:33:50.289Z,13.60
2019-05-02T06:34:49.293Z,12.10
2019-05-02T06:35:51.907Z,11.60
2019-05-02T06:36:50.253Z,10.70
2019-05-02T06:37:50.018Z,11.80
2019-05-02T06:38:52.096Z,13.10
2019-05-02T06:39:50.226Z,12.40
2019-05-02T06:40:49.223Z,12.80
2019-05-02T06:41:52.169Z,12.30
2019-05-02T06:42:50.177Z,12.50
2019-05-02T06:43:49.219Z,12.70
2019-05-02T06:44:49.162Z,12.50
2019-05-02T06:45:49.159Z,14.20
2019-05-02T06:46:49.139Z,12.30
2019-05-02T06:47:49.129Z,11.90
2019-05-02T06:48:52.261Z,11.40
2019-05-02T06:49:49.103Z,13.10
2019-05-02T06:50:49.097Z,11.90
2019-05-02T06:51:51.003Z,14.30
2019-05-02T06:52:50.069Z,12.40
2019-05-02T06:53:49.087Z,12.80
2019-05-02T06:54:49.159Z,16.80
2019-05-02T06:55:49.047Z,14.00
2019-05-02T06:56:49.228Z,12.10
2019-05-02T06:57:51.625Z,12.00
2019-05-02T06:58:49.014Z,12.10
2019-05-02T06:59:49.934Z,12.80
2019-05-02T07:00:58.322Z,13.40
2019-05-02T07:01:52.355Z,15.10
2019-05-02T07:02:49.980Z,16.70
2019-05-02T07:03:48.953Z,12.20
2019-05-02T07:04:48.967Z,14.10
2019-05-02T07:05:49.304Z,13.80
2019-05-02T07:06:58.118Z,14.40
2019-05-02T07:07:49.908Z,12.60
2019-05-02T07:08:48.917Z,14.40
2019-05-02T07:09:48.898Z,13.00
2019-05-02T07:10:48.873Z,13.10
2019-05-02T07:11:57.085Z,11.60
2019-05-02T07:12:51.197Z,13.40
2019-05-02T07:13:49.841Z,13.40
2019-05-02T07:14:48.840Z,12.50
2019-05-02T07:15:48.847Z,13.00
2019-05-02T07:16:49.674Z,14.80
2019-05-02T07:17:49.794Z,12.90
2019-05-02T07:18:49.707Z,14.00
2019-05-02T07:19:48.778Z,14.90
2019-05-02T07:20:48.771Z,14.90
2019-05-02T07:21:53.187Z,13.30
2019-05-02T07:22:49.746Z,16.00
2019-05-02T07:23:53.165Z,13.20
2019-05-02T07:24:49.719Z,17.80
2019-05-02T07:25:48.725Z,14.80
2019-05-02T07:26:52.178Z,17.60
2019-05-02T07:27:49.690Z,15.50
2019-05-02T07:28:48.692Z,16.40
2019-05-02T07:29:52.132Z,16.50
2019-05-02T07:30:49.662Z,17.00
2019-05-02T07:31:48.933Z,21.10
2019-05-02T07:32:48.647Z,16.80
2019-05-02T07:33:48.679Z,16.20
2019-05-02T07:34:49.505Z,22.10
2019-05-02T07:35:48.624Z,21.10
2019-05-02T07:36:48.588Z,19.50
2019-05-02T07:37:50.001Z,21.30
2019-05-02T07:38:48.580Z,20.40
2019-05-02T07:39:48.554Z,21.30
2019-05-02T07:40:53.098Z,21.20
2019-05-02T07:41:49.530Z,19.00
2019-05-02T07:42:48.526Z,17.20
2019-05-02T07:43:52.140Z,20.90
2019-05-02T07:44:49.502Z,18.20
2019-05-02T07:45:48.484Z,18.80
2019-05-02T07:46:51.996Z,17.90
2019-05-02T07:47:48.466Z,17.30
2019-05-02T07:48:49.031Z,15.50
2019-05-02T07:49:55.642Z,17.00
2019-05-02T07:51:30.740Z,14.20
2019-05-02T07:52:33.607Z,15.60
2019-05-02T07:54:13.446Z,17.20
2019-05-02T07:55:13.403Z,14.00
2019-05-02T07:56:17.643Z,18.90
2019-05-02T07:57:14.380Z,15.30
2019-05-02T07:58:13.377Z,15.70
2019-05-02T07:59:13.364Z,17.60
2019-05-02T08:00:13.346Z,17.70
2019-05-02T08:01:15.225Z,16.50
2019-05-02T08:02:13.350Z,16.70
2019-05-02T08:03:13.376Z,15.80
2019-05-02T08:04:13.429Z,17.50
2019-05-02T08:05:15.764Z,15.90
2019-05-02T08:06:14.282Z,15.00
2019-05-02T08:07:16.308Z,16.70
2019-05-02T08:08:14.259Z,17.00
2019-05-02T08:09:13.291Z,17.40
2019-05-02T08:10:16.310Z,20.00
2019-05-02T08:11:14.232Z,15.60
2019-05-02T08:12:13.272Z,17.70
2019-05-02T08:13:17.477Z,17.90
2019-05-02T08:14:14.197Z,20.30
2019-05-02T08:15:15.192Z,20.60
2019-05-02T08:16:13.176Z,17.30
2019-05-02T08:17:17.489Z,22.50
2019-05-02T08:18:14.181Z,21.10
2019-05-02T08:19:13.209Z,20.00
2019-05-02T08:20:13.536Z,20.80
2019-05-02T08:21:14.119Z,19.20
2019-05-02T08:22:14.835Z,18.50
2019-05-02T08:23:13.659Z,20.50
2019-05-02T08:24:13.107Z,18.50
2019-05-02T08:25:13.116Z,21.90
2019-05-02T08:26:16.328Z,20.50
2019-05-02T08:27:14.109Z,19.70
2019-05-02T08:28:15.882Z,21.00
2019-05-02T08:29:13.042Z,18.30
2019-05-02T08:30:13.062Z,20.00
2019-05-02T08:31:13.640Z,17.40
2019-05-02T08:32:14.010Z,18.30
2019-05-02T08:33:13.001Z,18.90
2019-05-02T08:34:14.983Z,20.70
2019-05-02T08:35:12.974Z,21.00
2019-05-02T08:36:12.978Z,22.50
2019-05-02T08:37:12.969Z,19.70
2019-05-02T08:38:17.853Z,18.00
2019-05-02T08:39:14.568Z,21.50
2019-05-02T08:40:12.940Z,21.80
2019-05-02T08:41:12.915Z,20.90
2019-05-02T08:42:12.943Z,18.90
2019-05-02T08:43:12.924Z,20.40
2019-05-02T08:44:16.815Z,20.40
2019-05-02T08:45:12.875Z,19.70
2019-05-02T08:46:14.552Z,19.00
2019-05-02T08:47:18.988Z,20.50
2019-05-02T08:48:13.831Z,20.10
2019-05-02T08:49:14.140Z,19.80
2019-05-02T08:50:13.836Z,21.20
2019-05-02T08:51:12.814Z,22.40
2019-05-02T08:52:12.805Z,21.80
2019-05-02T08:53:14.212Z,22.50
2019-05-02T08:54:13.854Z,21.60
2019-05-02T08:55:12.802Z,18.70
2019-05-02T08:56:16.543Z,22.20
2019-05-02T08:57:13.768Z,20.80
2019-05-02T08:58:14.876Z,20.70
2019-05-02T08:59:12.734Z,23.80
2019-05-02T09:00:12.845Z,21.70
2019-05-02T09:01:13.780Z,19.90
2019-05-02T09:02:12.678Z,22.90
2019-05-02T09:03:12.673Z,21.20
2019-05-02T09:04:12.664Z,21.60
2019-05-02T09:05:12.673Z,21.00
2019-05-02T09:06:12.647Z,16.90
2019-05-02T09:07:12.651Z,20.30
2019-05-02T09:08:14.390Z,19.90
2019-05-02T09:09:12.625Z,22.90
2019-05-02T09:10:12.622Z,22.40
2019-05-02T09:11:14.195Z,21.00
2019-05-02T09:12:15.133Z,21.90
2019-05-02T09:13:18.054Z,24.60
2019-05-02T09:14:13.559Z,21.00
2019-05-02T09:15:12.539Z,23.30
2019-05-02T09:16:12.543Z,19.60
2019-05-02T09:17:16.376Z,22.00
2019-05-02T09:18:12.525Z,19.70
2019-05-02T09:19:13.463Z,22.00
2019-05-02T09:20:18.989Z,24.40
2019-05-02T09:21:13.493Z,20.40
2019-05-02T09:22:16.587Z,20.30
2019-05-02T09:23:12.532Z,25.00
2019-05-02T09:24:16.758Z,19.90
2019-05-02T09:25:13.433Z,23.30
2019-05-02T09:26:12.437Z,21.70
2019-05-02T09:27:12.414Z,24.00
2019-05-02T09:28:12.662Z,22.80
2019-05-02T09:29:12.646Z,21.90
2019-05-02T09:30:17.071Z,25.20
2019-05-02T09:31:13.370Z,22.50
2019-05-02T09:32:12.574Z,23.70
2019-05-02T09:33:12.373Z,22.60
2019-05-02T09:34:12.354Z,22.90
2019-05-02T09:35:12.331Z,23.10
2019-05-02T09:36:12.439Z,23.60
2019-05-02T09:37:12.295Z,24.90
2019-05-02T09:38:13.006Z,22.70
2019-05-02T09:39:12.285Z,20.90
2019-05-02T09:40:16.544Z,21.70
2019-05-02T09:41:16.854Z,23.60
2019-05-02T09:42:15.631Z,23.80
2019-05-02T09:43:12.387Z,22.80
2019-05-02T09:44:14.585Z,25.70
2019-05-02T09:45:15.921Z,21.30
2019-05-02T09:46:16.504Z,24.00
2019-05-02T09:47:12.850Z,24.50
2019-05-02T09:48:12.703Z,23.20
2019-05-02T09:49:16.278Z,25.10
2019-05-02T09:50:12.878Z,33.90
2019-05-02T09:51:17.206Z,24.90
2019-05-02T09:52:13.124Z,22.30
2019-05-02T09:53:20.524Z,25.40
2019-05-02T09:54:13.114Z,24.00
2019-05-02T09:55:12.332Z,24.40
2019-05-02T09:56:12.713Z,23.10
2019-05-02T09:57:12.157Z,24.90
2019-05-02T09:58:19.501Z,25.30
2019-05-02T09:59:26.187Z,24.10
2019-05-02T10:00:13.097Z,22.40
2019-05-02T10:01:12.041Z,22.40
2019-05-02T10:02:12.593Z,24.00
2019-05-02T10:03:12.169Z,24.90
2019-05-02T10:04:12.183Z,21.50
2019-05-02T10:05:12.505Z,24.80
2019-05-02T10:06:16.434Z,24.60
2019-05-02T10:07:15.286Z,25.60
2019-05-02T10:08:13.939Z,25.10
2019-05-02T10:09:12.196Z,24.10
2019-05-02T10:10:12.618Z,27.30
2019-05-02T10:11:11.917Z,23.80
2019-05-02T10:12:12.338Z,22.80
2019-05-02T10:13:12.287Z,22.30
2019-05-02T10:14:11.896Z,25.60
2019-05-02T10:15:12.896Z,26.50
2019-05-02T10:16:12.313Z,24.80
2019-05-02T10:17:12.561Z,26.30
2019-05-02T10:18:14.413Z,25.30
2019-05-02T10:19:13.466Z,25.10
2019-05-02T10:20:12.450Z,20.90
2019-05-02T10:21:13.513Z,29.90
2019-05-02T10:22:12.802Z,26.40
2019-05-02T10:23:19.322Z,23.00
2019-05-02T10:24:12.781Z,22.90
2019-05-02T10:25:11.874Z,21.70
2019-05-02T10:26:12.887Z,26.50
2019-05-02T10:27:12.742Z,24.80
2019-05-02T10:28:12.923Z,23.40
2019-05-02T10:29:12.755Z,25.50
2019-05-02T10:30:15.523Z,25.80
2019-05-02T10:31:12.670Z,25.90
2019-05-02T10:32:15.093Z,30.30
2019-05-02T10:33:12.208Z,26.00
2019-05-02T10:34:16.156Z,26.80
2019-05-02T10:35:13.000Z,26.60
2019-05-02T10:36:19.394Z,28.40
2019-05-02T10:37:12.707Z,26.20
2019-05-02T10:38:15.221Z,27.70
2019-05-02T10:39:15.689Z,27.40
2019-05-02T10:40:13.495Z,24.90
2019-05-02T10:41:12.575Z,25.90
2019-05-02T10:42:12.505Z,27.30
2019-05-02T10:43:11.862Z,27.70
2019-05-02T10:44:12.831Z,24.80
2019-05-02T10:45:13.120Z,24.00
2019-05-02T10:46:12.675Z,25.80
2019-05-02T10:47:12.816Z,26.00
2019-05-02T10:48:22.817Z,25.90
2019-05-02T10:49:12.569Z,24.80
2019-05-02T10:50:11.738Z,27.30
2019-05-02T10:51:11.717Z,25.80
2019-05-02T10:52:12.238Z,25.90
2019-05-02T10:53:15.511Z,29.00
2019-05-02T10:54:12.025Z,26.90
2019-05-02T10:55:12.900Z,25.80
2019-05-02T10:56:11.814Z,26.20
2019-05-02T10:57:12.594Z,29.20
2019-05-02T10:58:12.432Z,27.80
2019-05-02T10:59:11.859Z,25.70
2019-05-02T11:00:12.052Z,26.60
2019-05-02T11:01:12.709Z,25.40
2019-05-02T11:02:12.856Z,24.00
2019-05-02T11:03:12.054Z,30.10
2019-05-02T11:04:12.875Z,24.50
2019-05-02T11:05:11.967Z,23.90
2019-05-02T11:06:12.572Z,29.10
2019-05-02T11:07:11.931Z,25.50
2019-05-02T11:08:12.013Z,24.40
2019-05-02T11:09:12.063Z,25.70
2019-05-02T11:10:12.262Z,24.90
2019-05-02T11:11:12.663Z,28.40
2019-05-02T11:12:11.849Z,30.60
2019-05-02T11:13:12.495Z,25.50
2019-05-02T11:14:11.957Z,25.70
2019-05-02T11:15:12.721Z,27.90
2019-05-02T11:16:12.394Z,27.50
2019-05-02T11:17:14.014Z,24.10
2019-05-02T11:18:12.659Z,23.80
2019-05-02T11:19:13.033Z,27.30
2019-05-02T11:20:12.281Z,26.50
2019-05-02T11:21:12.208Z,24.50
2019-05-02T11:22:12.151Z,23.80
2019-05-02T11:23:12.740Z,23.30
2019-05-02T11:24:13.800Z,25.20
2019-05-02T11:25:12.077Z,25.80
2019-05-02T11:26:14.494Z,26.90
2019-05-02T11:27:12.829Z,24.30
2019-05-02T11:28:12.429Z,26.20
2019-05-02T11:29:12.099Z,24.70
2019-05-02T11:30:12.167Z,24.00
2019-05-02T11:31:12.444Z,24.60
2019-05-02T11:32:12.767Z,23.40
2019-05-02T11:33:13.356Z,23.20
2019-05-02T11:34:12.307Z,23.30
2019-05-02T11:35:12.169Z,27.50
2019-05-02T11:36:10.995Z,25.00
2019-05-02T11:37:12.172Z,26.50
2019-05-02T11:38:13.286Z,28.20
2019-05-02T11:39:19.333Z,26.60
2019-05-02T11:40:12.905Z,23.80
2019-05-02T11:41:11.947Z,27.60
2019-05-02T11:42:12.464Z,24.90
2019-05-02T11:43:11.565Z,23.30
2019-05-02T11:44:12.136Z,27.40
2019-05-02T11:45:12.104Z,25.40
2019-05-02T11:46:12.125Z,28.00
2019-05-02T11:47:12.611Z,25.50
2019-05-02T11:48:11.921Z,22.40
2019-05-02T11:49:12.205Z,25.60
2019-05-02T11:50:11.815Z,25.50
2019-05-02T11:51:12.718Z,25.30
2019-05-02T11:52:11.936Z,26.60
2019-05-02T11:53:23.333Z,28.40
2019-05-02T11:54:12.887Z,24.80
2019-05-02T11:55:12.664Z,22.20
2019-05-02T11:56:11.663Z,23.10
2019-05-02T11:57:11.669Z,26.50
2019-05-02T11:58:12.499Z,28.60
2019-05-02T11:59:14.660Z,22.20
2019-05-02T12:00:12.470Z,21.90
2019-05-02T12:01:12.473Z,25.20
2019-05-02T12:02:17.540Z,24.90
2019-05-02T12:03:12.668Z,25.70
2019-05-02T12:04:12.979Z,24.40
2019-05-02T12:05:12.805Z,24.20
2019-05-02T12:06:14.046Z,22.00
2019-05-02T12:07:12.695Z,22.60
2019-05-02T12:08:17.521Z,25.70
2019-05-02T12:09:10.593Z,24.00
2019-05-02T12:10:12.416Z,23.90
2019-05-02T12:11:16.430Z,21.10
2019-05-02T12:12:12.357Z,21.70
2019-05-02T12:13:11.893Z,22.50
2019-05-02T12:14:12.355Z,27.00
2019-05-02T12:15:11.968Z,23.40
2019-05-02T12:16:12.450Z,23.90
2019-05-02T12:17:12.137Z,24.30
2019-05-02T12:18:12.083Z,23.90
2019-05-02T12:19:14.401Z,24.30
2019-05-02T12:20:11.894Z,24.00
2019-05-02T12:21:11.918Z,23.00
2019-05-02T12:22:12.961Z,22.80
2019-05-02T12:23:12.920Z,22.60
2019-05-02T12:24:12.209Z,21.40
2019-05-02T12:25:12.471Z,23.30
2019-05-02T12:26:12.265Z,22.20
2019-05-02T12:27:11.743Z,25.50
2019-05-02T12:28:11.981Z,23.90
2019-05-02T12:29:12.234Z,23.30
2019-05-02T12:30:11.818Z,23.20
2019-05-02T12:31:13.254Z,23.60
2019-05-02T12:32:12.018Z,23.60
2019-05-02T12:33:12.192Z,22.80
2019-05-02T12:34:12.011Z,21.90
2019-05-02T12:35:11.831Z,25.00
2019-05-02T12:36:12.011Z,26.20
2019-05-02T12:37:10.294Z,27.10
2019-05-02T12:38:12.283Z,22.40
2019-05-02T12:39:12.478Z,23.20
2019-05-02T12:40:12.167Z,23.50
2019-05-02T12:41:20.230Z,23.00
2019-05-02T12:42:12.767Z,21.50
2019-05-02T12:43:12.067Z,26.20
2019-05-02T12:44:11.720Z,24.50
2019-05-02T12:45:12.175Z,22.90
2019-05-02T12:46:11.723Z,23.10
2019-05-02T12:47:11.857Z,23.30
2019-05-02T12:48:10.210Z,20.90
2019-05-02T12:49:22.572Z,25.00
2019-05-02T12:50:12.074Z,25.60
2019-05-02T12:51:10.133Z,24.30
2019-05-02T12:52:10.198Z,23.70
2019-05-02T12:53:12.422Z,21.60
2019-05-02T12:54:12.212Z,24.40
2019-05-02T12:55:10.098Z,21.30